sensor_id;sensor_type;location;lat;lon;timestamp;pressure;altitude;pressure_sealevel;temperature
35582;BMP180;21687;48.900;9.188;2023-02-13T00:01:00;100344.00;;;-1.10
35582;BMP180;21687;48.900;9.188;2023-02-13T00:03:27;100338.00;;;-1.10
35582;BMP180;21687;48.900;9.188;2023-02-13T00:05:53;100330.00;;;-1.10
35582;BMP180;21687;48.900;9.188;2023-02-13T00:08:19;100335.00;;;-1.10
35582;BMP180;21687;48.900;9.188;2023-02-13T00:10:46;100322.00;;;-1.10
35582;BMP180;21687;48.900;9.188;2023-02-13T00:13:13;100336.00;;;-1.10
35582;BMP180;21687;48.900;9.188;2023-02-13T00:15:39;100330.00;;;-1.20
35582;BMP180;21687;48.900;9.188;2023-02-13T00:18:05;100335.00;;;-1.30
35582;BMP180;21687;48.900;9.188;2023-02-13T00:20:31;100330.00;;;-1.30
35582;BMP180;21687;48.900;9.188;2023-02-13T00:22:59;100335.00;;;-1.40
35582;BMP180;21687;48.900;9.188;2023-02-13T00:25:25;100331.00;;;-1.40
35582;BMP180;21687;48.900;9.188;2023-02-13T00:27:52;100332.00;;;-1.40
35582;BMP180;21687;48.900;9.188;2023-02-13T00:30:19;100330.00;;;-1.40
35582;BMP180;21687;48.900;9.188;2023-02-13T00:32:46;100331.00;;;-1.40
35582;BMP180;21687;48.900;9.188;2023-02-13T00:35:12;100331.00;;;-1.40
35582;BMP180;21687;48.900;9.188;2023-02-13T00:37:38;100317.00;;;-1.40
35582;BMP180;21687;48.900;9.188;2023-02-13T00:40:05;100319.00;;;-1.40
35582;BMP180;21687;48.900;9.188;2023-02-13T00:42:31;100324.00;;;-1.40
35582;BMP180;21687;48.900;9.188;2023-02-13T00:44:57;100319.00;;;-1.40
35582;BMP180;21687;48.900;9.188;2023-02-13T00:47:23;100324.00;;;-1.40
35582;BMP180;21687;48.900;9.188;2023-02-13T00:49:49;100324.00;;;-1.30
35582;BMP180;21687;48.900;9.188;2023-02-13T00:52:16;100317.00;;;-1.10
35582;BMP180;21687;48.900;9.188;2023-02-13T00:54:42;100319.00;;;-1.10
35582;BMP180;21687;48.900;9.188;2023-02-13T00:57:08;100318.00;;;-1.10
35582;BMP180;21687;48.900;9.188;2023-02-13T00:59:34;100315.00;;;-1.10
35582;BMP180;21687;48.900;9.188;2023-02-13T01:02:00;100323.00;;;-1.20
35582;BMP180;21687;48.900;9.188;2023-02-13T01:04:27;100324.00;;;-1.20
35582;BMP180;21687;48.900;9.188;2023-02-13T01:06:53;100317.00;;;-1.30
35582;BMP180;21687;48.900;9.188;2023-02-13T01:09:19;100313.00;;;-1.30
35582;BMP180;21687;48.900;9.188;2023-02-13T01:11:45;100313.00;;;-1.40
35582;BMP180;21687;48.900;9.188;2023-02-13T01:14:11;100317.00;;;-1.30
35582;BMP180;21687;48.900;9.188;2023-02-13T01:16:38;100315.00;;;-1.40
35582;BMP180;21687;48.900;9.188;2023-02-13T01:19:04;100323.00;;;-1.40
35582;BMP180;21687;48.900;9.188;2023-02-13T01:21:31;100332.00;;;-1.40
35582;BMP180;21687;48.900;9.188;2023-02-13T01:23:57;100315.00;;;-1.30
35582;BMP180;21687;48.900;9.188;2023-02-13T01:26:24;100321.00;;;-1.30
35582;BMP180;21687;48.900;9.188;2023-02-13T01:28:54;100315.00;;;-1.20
35582;BMP180;21687;48.900;9.188;2023-02-13T01:31:20;100331.00;;;-1.10
35582;BMP180;21687;48.900;9.188;2023-02-13T01:33:47;100311.00;;;-1.10
35582;BMP180;21687;48.900;9.188;2023-02-13T01:36:13;100312.00;;;-1.20
35582;BMP180;21687;48.900;9.188;2023-02-13T01:38:40;100316.00;;;-1.30
35582;BMP180;21687;48.900;9.188;2023-02-13T01:41:06;100315.00;;;-1.40
35582;BMP180;21687;48.900;9.188;2023-02-13T01:46:50;100315.00;;;-1.60
35582;BMP180;21687;48.900;9.188;2023-02-13T01:49:20;100314.00;;;-1.50
35582;BMP180;21687;48.900;9.188;2023-02-13T01:51:50;100302.00;;;-1.60
35582;BMP180;21687;48.900;9.188;2023-02-13T01:54:24;100307.00;;;-1.70
35582;BMP180;21687;48.900;9.188;2023-02-13T01:57:00;100308.00;;;-1.70
35582;BMP180;21687;48.900;9.188;2023-02-13T01:59:32;100305.00;;;-1.80
35582;BMP180;21687;48.900;9.188;2023-02-13T02:02:00;100299.00;;;-1.90
35582;BMP180;21687;48.900;9.188;2023-02-13T02:04:34;100305.00;;;-1.90
35582;BMP180;21687;48.900;9.188;2023-02-13T02:07:11;100312.00;;;-1.90
35582;BMP180;21687;48.900;9.188;2023-02-13T02:09:41;100316.00;;;-1.80
35582;BMP180;21687;48.900;9.188;2023-02-13T02:14:47;100292.00;;;-1.90
35582;BMP180;21687;48.900;9.188;2023-02-13T02:17:14;100310.00;;;-1.90
35582;BMP180;21687;48.900;9.188;2023-02-13T02:33:25;100290.00;;;-2.10
35582;BMP180;21687;48.900;9.188;2023-02-13T02:39:19;100285.00;;;-2.10
35582;BMP180;21687;48.900;9.188;2023-02-13T02:42:06;100290.00;;;-2.10
35582;BMP180;21687;48.900;9.188;2023-02-13T02:44:51;100264.00;;;-2.10
35582;BMP180;21687;48.900;9.188;2023-02-13T02:54:02;100294.00;;;-2.10
35582;BMP180;21687;48.900;9.188;2023-02-13T02:56:51;100297.00;;;-2.00
35582;BMP180;21687;48.900;9.188;2023-02-13T02:59:19;100297.00;;;-1.90
35582;BMP180;21687;48.900;9.188;2023-02-13T03:02:06;100290.00;;;-1.90
35582;BMP180;21687;48.900;9.188;2023-02-13T03:04:55;100287.00;;;-2.10
35582;BMP180;21687;48.900;9.188;2023-02-13T03:07:40;100288.00;;;-2.00
35582;BMP180;21687;48.900;9.188;2023-02-13T03:10:14;100284.00;;;-2.10
35582;BMP180;21687;48.900;9.188;2023-02-13T03:13:13;100289.00;;;-2.10
35582;BMP180;21687;48.900;9.188;2023-02-13T03:15:52;100299.00;;;-2.10
35582;BMP180;21687;48.900;9.188;2023-02-13T03:18:44;100292.00;;;-2.20
35582;BMP180;21687;48.900;9.188;2023-02-13T03:21:36;100299.00;;;-2.10
35582;BMP180;21687;48.900;9.188;2023-02-13T03:27:36;100297.00;;;-2.20
35582;BMP180;21687;48.900;9.188;2023-02-13T03:30:57;100296.00;;;-2.30
35582;BMP180;21687;48.900;9.188;2023-02-13T03:33:45;100305.00;;;-2.40
35582;BMP180;21687;48.900;9.188;2023-02-13T03:36:16;100301.00;;;-2.40
35582;BMP180;21687;48.900;9.188;2023-02-13T03:42:03;100309.00;;;-2.40
35582;BMP180;21687;48.900;9.188;2023-02-13T03:47:03;100319.00;;;-2.40
35582;BMP180;21687;48.900;9.188;2023-02-13T03:49:47;100319.00;;;-2.30
35582;BMP180;21687;48.900;9.188;2023-02-13T03:52:59;100342.00;;;-2.40
35582;BMP180;21687;48.900;9.188;2023-02-13T03:55:33;100323.00;;;-2.50
35582;BMP180;21687;48.900;9.188;2023-02-13T03:58:32;100324.00;;;-2.50
35582;BMP180;21687;48.900;9.188;2023-02-13T04:01:22;100337.00;;;-2.60
35582;BMP180;21687;48.900;9.188;2023-02-13T04:03:58;100347.00;;;-2.50
35582;BMP180;21687;48.900;9.188;2023-02-13T04:06:36;100341.00;;;-2.50
35582;BMP180;21687;48.900;9.188;2023-02-13T04:09:03;100345.00;;;-2.60
35582;BMP180;21687;48.900;9.188;2023-02-13T04:11:54;100343.00;;;-2.70
35582;BMP180;21687;48.900;9.188;2023-02-13T04:17:04;100339.00;;;-2.70
35582;BMP180;21687;48.900;9.188;2023-02-13T04:19:31;100340.00;;;-2.60
35582;BMP180;21687;48.900;9.188;2023-02-13T04:22:00;100344.00;;;-2.60
35582;BMP180;21687;48.900;9.188;2023-02-13T04:24:27;100349.00;;;-2.60
35582;BMP180;21687;48.900;9.188;2023-02-13T04:26:54;100347.00;;;-2.70
35582;BMP180;21687;48.900;9.188;2023-02-13T04:29:25;100348.00;;;-2.70
35582;BMP180;21687;48.900;9.188;2023-02-13T04:31:51;100353.00;;;-2.70
35582;BMP180;21687;48.900;9.188;2023-02-13T04:34:17;100357.00;;;-2.70
35582;BMP180;21687;48.900;9.188;2023-02-13T04:36:44;100342.00;;;-2.80
35582;BMP180;21687;48.900;9.188;2023-02-13T04:39:11;100345.00;;;-2.70
35582;BMP180;21687;48.900;9.188;2023-02-13T04:41:37;100352.00;;;-2.50
35582;BMP180;21687;48.900;9.188;2023-02-13T04:44:03;100350.00;;;-2.40
35582;BMP180;21687;48.900;9.188;2023-02-13T04:46:30;100352.00;;;-2.30
35582;BMP180;21687;48.900;9.188;2023-02-13T04:48:56;100339.00;;;-2.20
35582;BMP180;21687;48.900;9.188;2023-02-13T04:51:22;100344.00;;;-2.30
35582;BMP180;21687;48.900;9.188;2023-02-13T04:53:48;100345.00;;;-2.30
35582;BMP180;21687;48.900;9.188;2023-02-13T04:56:15;100356.00;;;-2.30
35582;BMP180;21687;48.900;9.188;2023-02-13T04:58:41;100344.00;;;-2.30
35582;BMP180;21687;48.900;9.188;2023-02-13T05:01:12;100348.00;;;-2.30
35582;BMP180;21687;48.900;9.188;2023-02-13T05:03:38;100342.00;;;-2.30
35582;BMP180;21687;48.900;9.188;2023-02-13T05:06:05;100347.00;;;-2.40
35582;BMP180;21687;48.900;9.188;2023-02-13T05:08:31;100350.00;;;-2.30
35582;BMP180;21687;48.900;9.188;2023-02-13T05:10:57;100342.00;;;-2.30
35582;BMP180;21687;48.900;9.188;2023-02-13T05:13:23;100347.00;;;-2.30
35582;BMP180;21687;48.900;9.188;2023-02-13T05:15:49;100347.00;;;-2.30
35582;BMP180;21687;48.900;9.188;2023-02-13T05:18:18;100352.00;;;-2.30
35582;BMP180;21687;48.900;9.188;2023-02-13T05:20:44;100357.00;;;-2.40
35582;BMP180;21687;48.900;9.188;2023-02-13T05:23:14;100342.00;;;-2.40
35582;BMP180;21687;48.900;9.188;2023-02-13T05:25:50;100353.00;;;-2.50
35582;BMP180;21687;48.900;9.188;2023-02-13T05:28:16;100346.00;;;-2.50
35582;BMP180;21687;48.900;9.188;2023-02-13T05:31:01;100345.00;;;-2.60
35582;BMP180;21687;48.900;9.188;2023-02-13T05:33:27;100350.00;;;-2.60
35582;BMP180;21687;48.900;9.188;2023-02-13T05:35:54;100342.00;;;-2.60
35582;BMP180;21687;48.900;9.188;2023-02-13T05:38:20;100345.00;;;-2.70
35582;BMP180;21687;48.900;9.188;2023-02-13T05:40:46;100349.00;;;-2.80
35582;BMP180;21687;48.900;9.188;2023-02-13T05:43:12;100347.00;;;-2.80
35582;BMP180;21687;48.900;9.188;2023-02-13T05:45:38;100348.00;;;-2.80
35582;BMP180;21687;48.900;9.188;2023-02-13T05:48:05;100357.00;;;-2.80
35582;BMP180;21687;48.900;9.188;2023-02-13T05:50:31;100350.00;;;-2.80
35582;BMP180;21687;48.900;9.188;2023-02-13T05:52:57;100344.00;;;-2.80
35582;BMP180;21687;48.900;9.188;2023-02-13T05:55:23;100347.00;;;-2.90
35582;BMP180;21687;48.900;9.188;2023-02-13T05:57:54;100325.00;;;-2.90
35582;BMP180;21687;48.900;9.188;2023-02-13T06:00:20;100350.00;;;-2.90
35582;BMP180;21687;48.900;9.188;2023-02-13T06:02:47;100335.00;;;-3.00
35582;BMP180;21687;48.900;9.188;2023-02-13T06:05:13;100340.00;;;-2.90
35582;BMP180;21687;48.900;9.188;2023-02-13T06:07:39;100345.00;;;-2.80
35582;BMP180;21687;48.900;9.188;2023-02-13T06:10:06;100354.00;;;-2.80
35582;BMP180;21687;48.900;9.188;2023-02-13T06:12:32;100336.00;;;-2.90
35582;BMP180;21687;48.900;9.188;2023-02-13T06:14:59;100342.00;;;-2.90
35582;BMP180;21687;48.900;9.188;2023-02-13T06:17:25;100354.00;;;-3.00
35582;BMP180;21687;48.900;9.188;2023-02-13T06:19:51;100341.00;;;-2.90
35582;BMP180;21687;48.900;9.188;2023-02-13T06:22:18;100336.00;;;-2.90
35582;BMP180;21687;48.900;9.188;2023-02-13T06:24:44;100349.00;;;-2.90
35582;BMP180;21687;48.900;9.188;2023-02-13T06:27:10;100335.00;;;-3.00
35582;BMP180;21687;48.900;9.188;2023-02-13T06:29:36;100356.00;;;-3.00
35582;BMP180;21687;48.900;9.188;2023-02-13T06:32:02;100355.00;;;-3.00
35582;BMP180;21687;48.900;9.188;2023-02-13T06:34:29;100351.00;;;-3.00
35582;BMP180;21687;48.900;9.188;2023-02-13T06:36:55;100344.00;;;-3.10
35582;BMP180;21687;48.900;9.188;2023-02-13T06:39:21;100353.00;;;-3.10
35582;BMP180;21687;48.900;9.188;2023-02-13T06:41:47;100352.00;;;-3.20
35582;BMP180;21687;48.900;9.188;2023-02-13T06:44:14;100356.00;;;-3.20
35582;BMP180;21687;48.900;9.188;2023-02-13T06:46:40;100358.00;;;-3.20
35582;BMP180;21687;48.900;9.188;2023-02-13T06:49:07;100351.00;;;-3.20
35582;BMP180;21687;48.900;9.188;2023-02-13T06:51:34;100359.00;;;-3.10
35582;BMP180;21687;48.900;9.188;2023-02-13T06:54:00;100356.00;;;-3.20
35582;BMP180;21687;48.900;9.188;2023-02-13T06:56:27;100359.00;;;-3.20
35582;BMP180;21687;48.900;9.188;2023-02-13T06:58:53;100359.00;;;-3.20
35582;BMP180;21687;48.900;9.188;2023-02-13T07:01:20;100358.00;;;-3.20
35582;BMP180;21687;48.900;9.188;2023-02-13T07:03:46;100351.00;;;-3.10
35582;BMP180;21687;48.900;9.188;2023-02-13T07:06:17;100356.00;;;-3.10
35582;BMP180;21687;48.900;9.188;2023-02-13T07:08:44;100365.00;;;-3.10
35582;BMP180;21687;48.900;9.188;2023-02-13T07:11:20;100354.00;;;-3.10
35582;BMP180;21687;48.900;9.188;2023-02-13T07:13:47;100367.00;;;-3.20
35582;BMP180;21687;48.900;9.188;2023-02-13T07:16:13;100365.00;;;-3.10
35582;BMP180;21687;48.900;9.188;2023-02-13T07:18:40;100369.00;;;-3.00
35582;BMP180;21687;48.900;9.188;2023-02-13T07:21:07;100367.00;;;-3.00
35582;BMP180;21687;48.900;9.188;2023-02-13T07:23:33;100367.00;;;-3.00
35582;BMP180;21687;48.900;9.188;2023-02-13T07:26:00;100362.00;;;-3.00
35582;BMP180;21687;48.900;9.188;2023-02-13T07:28:28;100365.00;;;-3.00
35582;BMP180;21687;48.900;9.188;2023-02-13T07:30:55;100382.00;;;-2.90
35582;BMP180;21687;48.900;9.188;2023-02-13T07:33:21;100375.00;;;-2.80
35582;BMP180;21687;48.900;9.188;2023-02-13T07:35:49;100371.00;;;-2.80
35582;BMP180;21687;48.900;9.188;2023-02-13T07:38:16;100371.00;;;-2.70
35582;BMP180;21687;48.900;9.188;2023-02-13T07:40:43;100374.00;;;-2.60
35582;BMP180;21687;48.900;9.188;2023-02-13T07:43:10;100381.00;;;-2.60
35582;BMP180;21687;48.900;9.188;2023-02-13T07:45:37;100386.00;;;-2.50
35582;BMP180;21687;48.900;9.188;2023-02-13T07:48:04;100368.00;;;-2.40
35582;BMP180;21687;48.900;9.188;2023-02-13T07:50:30;100380.00;;;-2.40
35582;BMP180;21687;48.900;9.188;2023-02-13T07:52:59;100378.00;;;-2.30
35582;BMP180;21687;48.900;9.188;2023-02-13T07:55:26;100374.00;;;-2.30
35582;BMP180;21687;48.900;9.188;2023-02-13T07:57:53;100369.00;;;-2.10
35582;BMP180;21687;48.900;9.188;2023-02-13T08:00:21;100372.00;;;-2.00
35582;BMP180;21687;48.900;9.188;2023-02-13T08:02:48;100378.00;;;-1.90
35582;BMP180;21687;48.900;9.188;2023-02-13T08:05:14;100378.00;;;-1.50
35582;BMP180;21687;48.900;9.188;2023-02-13T08:07:40;100375.00;;;-1.40
35582;BMP180;21687;48.900;9.188;2023-02-13T08:10:07;100379.00;;;-1.30
35582;BMP180;21687;48.900;9.188;2023-02-13T08:12:53;100376.00;;;-1.20
35582;BMP180;21687;48.900;9.188;2023-02-13T08:15:19;100389.00;;;-1.10
35582;BMP180;21687;48.900;9.188;2023-02-13T08:17:46;100383.00;;;-1.00
35582;BMP180;21687;48.900;9.188;2023-02-13T08:20:12;100384.00;;;-1.00
35582;BMP180;21687;48.900;9.188;2023-02-13T08:22:39;100361.00;;;-0.90
35582;BMP180;21687;48.900;9.188;2023-02-13T08:25:06;100375.00;;;-0.90
35582;BMP180;21687;48.900;9.188;2023-02-13T08:27:33;100382.00;;;-0.90
35582;BMP180;21687;48.900;9.188;2023-02-13T08:29:59;100374.00;;;-0.80
35582;BMP180;21687;48.900;9.188;2023-02-13T08:32:26;100379.00;;;-0.70
35582;BMP180;21687;48.900;9.188;2023-02-13T08:34:53;100368.00;;;-0.70
35582;BMP180;21687;48.900;9.188;2023-02-13T08:37:19;100372.00;;;-0.70
35582;BMP180;21687;48.900;9.188;2023-02-13T08:39:45;100373.00;;;-0.60
35582;BMP180;21687;48.900;9.188;2023-02-13T08:42:11;100375.00;;;-0.50
35582;BMP180;21687;48.900;9.188;2023-02-13T08:44:37;100376.00;;;-0.40
35582;BMP180;21687;48.900;9.188;2023-02-13T08:47:06;100358.00;;;-0.40
35582;BMP180;21687;48.900;9.188;2023-02-13T08:49:32;100369.00;;;-0.20
35582;BMP180;21687;48.900;9.188;2023-02-13T08:52:02;100384.00;;;-0.10
35582;BMP180;21687;48.900;9.188;2023-02-13T08:54:29;100367.00;;;0.00
35582;BMP180;21687;48.900;9.188;2023-02-13T08:56:55;100372.00;;;0.10
35582;BMP180;21687;48.900;9.188;2023-02-13T08:59:22;100365.00;;;0.20
35582;BMP180;21687;48.900;9.188;2023-02-13T09:01:48;100372.00;;;0.30
35582;BMP180;21687;48.900;9.188;2023-02-13T09:04:14;100370.00;;;0.30
35582;BMP180;21687;48.900;9.188;2023-02-13T09:06:43;100370.00;;;0.40
35582;BMP180;21687;48.900;9.188;2023-02-13T09:09:09;100358.00;;;0.50
35582;BMP180;21687;48.900;9.188;2023-02-13T09:11:36;100331.00;;;0.60
35582;BMP180;21687;48.900;9.188;2023-02-13T09:14:02;100369.00;;;0.80
35582;BMP180;21687;48.900;9.188;2023-02-13T09:16:28;100365.00;;;0.80
35582;BMP180;21687;48.900;9.188;2023-02-13T09:18:54;100380.00;;;0.80
35582;BMP180;21687;48.900;9.188;2023-02-13T09:21:21;100376.00;;;0.90
35582;BMP180;21687;48.900;9.188;2023-02-13T09:23:49;100378.00;;;1.00
35582;BMP180;21687;48.900;9.188;2023-02-13T09:26:18;100365.00;;;1.00
35582;BMP180;21687;48.900;9.188;2023-02-13T09:28:44;100367.00;;;1.10
35582;BMP180;21687;48.900;9.188;2023-02-13T09:31:16;100370.00;;;1.20
35582;BMP180;21687;48.900;9.188;2023-02-13T09:33:44;100378.00;;;1.30
35582;BMP180;21687;48.900;9.188;2023-02-13T09:36:13;100374.00;;;1.40
35582;BMP180;21687;48.900;9.188;2023-02-13T09:38:40;100373.00;;;1.40
35582;BMP180;21687;48.900;9.188;2023-02-13T09:41:17;100377.00;;;1.50
35582;BMP180;21687;48.900;9.188;2023-02-13T09:43:49;100376.00;;;1.60
35582;BMP180;21687;48.900;9.188;2023-02-13T09:46:23;100385.00;;;1.70
35582;BMP180;21687;48.900;9.188;2023-02-13T09:48:57;100381.00;;;1.80
35582;BMP180;21687;48.900;9.188;2023-02-13T09:51:25;100381.00;;;1.90
35582;BMP180;21687;48.900;9.188;2023-02-13T09:53:56;100385.00;;;2.00
35582;BMP180;21687;48.900;9.188;2023-02-13T10:01:50;100384.00;;;2.10
35582;BMP180;21687;48.900;9.188;2023-02-13T10:11:03;100380.00;;;2.40
35582;BMP180;21687;48.900;9.188;2023-02-13T10:14:00;100383.00;;;2.50
35582;BMP180;21687;48.900;9.188;2023-02-13T10:21:49;100371.00;;;2.70
35582;BMP180;21687;48.900;9.188;2023-02-13T10:27:19;100372.00;;;2.90
35582;BMP180;21687;48.900;9.188;2023-02-13T10:35:03;100366.00;;;3.10
35582;BMP180;21687;48.900;9.188;2023-02-13T10:37:40;100367.00;;;3.20
35582;BMP180;21687;48.900;9.188;2023-02-13T10:40:10;100369.00;;;3.20
35582;BMP180;21687;48.900;9.188;2023-02-13T10:42:43;100371.00;;;3.30
35582;BMP180;21687;48.900;9.188;2023-02-13T10:45:22;100368.00;;;3.40
35582;BMP180;21687;48.900;9.188;2023-02-13T10:48:05;100360.00;;;3.40
35582;BMP180;21687;48.900;9.188;2023-02-13T10:50:50;100363.00;;;3.50
35582;BMP180;21687;48.900;9.188;2023-02-13T10:53:34;100358.00;;;3.50
35582;BMP180;21687;48.900;9.188;2023-02-13T10:59:03;100355.00;;;3.80
35582;BMP180;21687;48.900;9.188;2023-02-13T11:01:41;100349.00;;;3.90
35582;BMP180;21687;48.900;9.188;2023-02-13T11:04:18;100342.00;;;3.80
35582;BMP180;21687;48.900;9.188;2023-02-13T11:06:57;100353.00;;;3.90
35582;BMP180;21687;48.900;9.188;2023-02-13T11:09:24;100341.00;;;4.00
35582;BMP180;21687;48.900;9.188;2023-02-13T11:11:51;100321.00;;;4.20
35582;BMP180;21687;48.900;9.188;2023-02-13T11:14:19;100352.00;;;4.10
35582;BMP180;21687;48.900;9.188;2023-02-13T11:16:57;100347.00;;;4.20
35582;BMP180;21687;48.900;9.188;2023-02-13T11:19:38;100337.00;;;4.20
35582;BMP180;21687;48.900;9.188;2023-02-13T11:22:12;100339.00;;;4.30
35582;BMP180;21687;48.900;9.188;2023-02-13T11:24:42;100335.00;;;4.50
35582;BMP180;21687;48.900;9.188;2023-02-13T11:27:15;100333.00;;;4.60
35582;BMP180;21687;48.900;9.188;2023-02-13T11:29:57;100331.00;;;4.70
35582;BMP180;21687;48.900;9.188;2023-02-13T11:32:28;100335.00;;;4.70
35582;BMP180;21687;48.900;9.188;2023-02-13T11:34:56;100337.00;;;4.80
35582;BMP180;21687;48.900;9.188;2023-02-13T11:37:29;100337.00;;;5.00
35582;BMP180;21687;48.900;9.188;2023-02-13T11:39:58;100331.00;;;5.00
35582;BMP180;21687;48.900;9.188;2023-02-13T11:42:29;100335.00;;;5.00
35582;BMP180;21687;48.900;9.188;2023-02-13T11:45:18;100335.00;;;5.00
35582;BMP180;21687;48.900;9.188;2023-02-13T11:47:45;100331.00;;;5.10
35582;BMP180;21687;48.900;9.188;2023-02-13T11:50:32;100323.00;;;5.30
35582;BMP180;21687;48.900;9.188;2023-02-13T11:53:29;100332.00;;;5.20
35582;BMP180;21687;48.900;9.188;2023-02-13T11:56:03;100324.00;;;5.30
35582;BMP180;21687;48.900;9.188;2023-02-13T11:58:30;100325.00;;;5.40
35582;BMP180;21687;48.900;9.188;2023-02-13T12:03:55;100317.00;;;5.60
35582;BMP180;21687;48.900;9.188;2023-02-13T12:06:21;100333.00;;;5.60
35582;BMP180;21687;48.900;9.188;2023-02-13T12:08:48;100333.00;;;5.70
35582;BMP180;21687;48.900;9.188;2023-02-13T12:11:27;100324.00;;;5.60
35582;BMP180;21687;48.900;9.188;2023-02-13T12:13:59;100335.00;;;5.70
35582;BMP180;21687;48.900;9.188;2023-02-13T12:16:30;100330.00;;;5.80
35582;BMP180;21687;48.900;9.188;2023-02-13T12:19:01;100319.00;;;6.00
35582;BMP180;21687;48.900;9.188;2023-02-13T12:38:28;100310.00;;;6.30
35582;BMP180;21687;48.900;9.188;2023-02-13T12:49:34;100293.00;;;6.40
35582;BMP180;21687;48.900;9.188;2023-02-13T12:55:29;100302.00;;;6.50
35582;BMP180;21687;48.900;9.188;2023-02-13T12:58:25;100290.00;;;6.60
35582;BMP180;21687;48.900;9.188;2023-02-13T13:00:59;100293.00;;;6.70
35582;BMP180;21687;48.900;9.188;2023-02-13T13:03:32;100293.00;;;6.70
35582;BMP180;21687;48.900;9.188;2023-02-13T13:06:13;100292.00;;;6.80
35582;BMP180;21687;48.900;9.188;2023-02-13T13:11:53;100293.00;;;6.90
35582;BMP180;21687;48.900;9.188;2023-02-13T13:14:35;100297.00;;;7.00
35582;BMP180;21687;48.900;9.188;2023-02-13T13:22:47;100281.00;;;7.20
35582;BMP180;21687;48.900;9.188;2023-02-13T13:28:41;100277.00;;;7.20
35582;BMP180;21687;48.900;9.188;2023-02-13T13:30:49;100277.00;;;7.30
35582;BMP180;21687;48.900;9.188;2023-02-13T13:33:21;100269.00;;;7.40
35582;BMP180;21687;48.900;9.188;2023-02-13T13:36:02;100268.00;;;7.50
35582;BMP180;21687;48.900;9.188;2023-02-13T13:46:55;100262.00;;;7.70
35582;BMP180;21687;48.900;9.188;2023-02-13T13:52:24;100267.00;;;7.80
35582;BMP180;21687;48.900;9.188;2023-02-13T13:54:51;100262.00;;;7.80
35582;BMP180;21687;48.900;9.188;2023-02-13T14:07:34;100255.00;;;8.00
35582;BMP180;21687;48.900;9.188;2023-02-13T14:10:01;100265.00;;;8.00
35582;BMP180;21687;48.900;9.188;2023-02-13T14:14:55;100264.00;;;7.90
35582;BMP180;21687;48.900;9.188;2023-02-13T14:18:02;100257.00;;;8.10
35582;BMP180;21687;48.900;9.188;2023-02-13T14:20:35;100261.00;;;8.00
35582;BMP180;21687;48.900;9.188;2023-02-13T14:23:35;100265.00;;;8.10
35582;BMP180;21687;48.900;9.188;2023-02-13T14:26:17;100261.00;;;8.10
35582;BMP180;21687;48.900;9.188;2023-02-13T14:36:22;100270.00;;;8.00
35582;BMP180;21687;48.900;9.188;2023-02-13T14:39:06;100256.00;;;8.00
35582;BMP180;21687;48.900;9.188;2023-02-13T14:46:56;100260.00;;;8.10
35582;BMP180;21687;48.900;9.188;2023-02-13T14:49:29;100255.00;;;8.00
35582;BMP180;21687;48.900;9.188;2023-02-13T14:51:59;100254.00;;;7.90
35582;BMP180;21687;48.900;9.188;2023-02-13T14:54:31;100257.00;;;8.00
35582;BMP180;21687;48.900;9.188;2023-02-13T14:57:34;100266.00;;;7.90
35582;BMP180;21687;48.900;9.188;2023-02-13T15:02:44;100251.00;;;8.00
35582;BMP180;21687;48.900;9.188;2023-02-13T15:05:17;100253.00;;;7.90
35582;BMP180;21687;48.900;9.188;2023-02-13T15:07:52;100255.00;;;7.90
35582;BMP180;21687;48.900;9.188;2023-02-13T15:10:42;100247.00;;;7.90
35582;BMP180;21687;48.900;9.188;2023-02-13T15:15:44;100239.00;;;7.80
35582;BMP180;21687;48.900;9.188;2023-02-13T15:18:29;100243.00;;;7.80
35582;BMP180;21687;48.900;9.188;2023-02-13T15:20:59;100242.00;;;7.80
35582;BMP180;21687;48.900;9.188;2023-02-13T15:23:31;100238.00;;;7.80
35582;BMP180;21687;48.900;9.188;2023-02-13T15:26:05;100231.00;;;7.70
35582;BMP180;21687;48.900;9.188;2023-02-13T15:28:33;100234.00;;;7.60
35582;BMP180;21687;48.900;9.188;2023-02-13T15:31:05;100232.00;;;7.60
35582;BMP180;21687;48.900;9.188;2023-02-13T15:33:44;100231.00;;;7.60
35582;BMP180;21687;48.900;9.188;2023-02-13T15:36:22;100239.00;;;7.50
35582;BMP180;21687;48.900;9.188;2023-02-13T15:38:59;100241.00;;;7.50
35582;BMP180;21687;48.900;9.188;2023-02-13T15:41:31;100240.00;;;7.40
35582;BMP180;21687;48.900;9.188;2023-02-13T15:43:58;100238.00;;;7.30
35582;BMP180;21687;48.900;9.188;2023-02-13T15:48:54;100245.00;;;7.20
35582;BMP180;21687;48.900;9.188;2023-02-13T15:51:24;100226.00;;;7.20
35582;BMP180;21687;48.900;9.188;2023-02-13T15:56:17;100237.00;;;7.10
35582;BMP180;21687;48.900;9.188;2023-02-13T15:58:44;100240.00;;;7.00
35582;BMP180;21687;48.900;9.188;2023-02-13T16:01:10;100233.00;;;6.80
35582;BMP180;21687;48.900;9.188;2023-02-13T16:03:38;100244.00;;;6.80
35582;BMP180;21687;48.900;9.188;2023-02-13T16:06:06;100248.00;;;6.70
35582;BMP180;21687;48.900;9.188;2023-02-13T16:08:35;100245.00;;;6.70
35582;BMP180;21687;48.900;9.188;2023-02-13T16:16:24;100256.00;;;6.50
35582;BMP180;21687;48.900;9.188;2023-02-13T16:18:52;100248.00;;;6.40
35582;BMP180;21687;48.900;9.188;2023-02-13T16:21:26;100243.00;;;6.20
35582;BMP180;21687;48.900;9.188;2023-02-13T16:24:02;100244.00;;;6.20
35582;BMP180;21687;48.900;9.188;2023-02-13T16:26:29;100235.00;;;6.10
35582;BMP180;21687;48.900;9.188;2023-02-13T16:28:56;100241.00;;;6.10
35582;BMP180;21687;48.900;9.188;2023-02-13T16:31:23;100241.00;;;5.90
35582;BMP180;21687;48.900;9.188;2023-02-13T16:33:49;100226.00;;;5.80
35582;BMP180;21687;48.900;9.188;2023-02-13T16:36:17;100239.00;;;5.80
35582;BMP180;21687;48.900;9.188;2023-02-13T16:38:45;100234.00;;;5.60
35582;BMP180;21687;48.900;9.188;2023-02-13T16:43:48;100240.00;;;5.30
35582;BMP180;21687;48.900;9.188;2023-02-13T16:46:36;100234.00;;;5.20
35582;BMP180;21687;48.900;9.188;2023-02-13T16:49:15;100248.00;;;5.10
35582;BMP180;21687;48.900;9.188;2023-02-13T16:54:54;100252.00;;;4.80
35582;BMP180;21687;48.900;9.188;2023-02-13T16:57:24;100250.00;;;4.80
35582;BMP180;21687;48.900;9.188;2023-02-13T17:05:15;100260.00;;;4.50
35582;BMP180;21687;48.900;9.188;2023-02-13T17:07:45;100255.00;;;4.30
35582;BMP180;21687;48.900;9.188;2023-02-13T17:10:26;100258.00;;;4.30
35582;BMP180;21687;48.900;9.188;2023-02-13T17:12:57;100266.00;;;4.00
35582;BMP180;21687;48.900;9.188;2023-02-13T17:15:26;100261.00;;;4.10
35582;BMP180;21687;48.900;9.188;2023-02-13T17:17:53;100264.00;;;3.90
35582;BMP180;21687;48.900;9.188;2023-02-13T17:20:26;100266.00;;;3.90